Weather reports worldwide

Advertisment
Kinbrace, United Kingdom (99016): temperature & dewpoint: 03.04.2020 12:00:00 - 09.04.2020 12:00:00 (BST)Kinbrace, United Kingdom (99016): wind speed & gusts: 03.04.2020 12:00:00 - 09.04.2020 12:00:00 (BST)Kinbrace, United Kingdom (99016): wind direction: 03.04.2020 12:00:00 - 09.04.2020 12:00:00 (BST)Kinbrace, United Kingdom (99016): precipitation: 03.04.2020 12:00:00 - 09.04.2020 12:00:00 (BST)
Date & Time tt [°C] td [°C] ff [km/h] ff [kn] fx [km/h] fx [kn] dd rr [mm]
09.04.2020 12:00:00 7,6 -0,7 24 13 - - SSE -
09.04.2020 11:00:00 7,6 0,9 22 12 - - SSE 0,0
09.04.2020 10:00:00 3,5 1,4 2 1 - - SSE 0,0
09.04.2020 09:00:00 -0,4 -1,1 2 1 - - WSW 0,0
09.04.2020 08:00:00 -4,1 -4,5 2 1 - - S 0,0
09.04.2020 07:00:00 -5,7 -6,3 4 2 - - SE 0,0
09.04.2020 06:00:00 -5,8 -6,4 2 1 - - SSE 0,0
09.04.2020 05:00:00 -5,5 -6,2 0 0 - - N 0,0
09.04.2020 04:00:00 -5,5 -6,2 2 1 - - S 0,0
09.04.2020 03:00:00 -5,0 -5,8 0 0 - - N 0,0
09.04.2020 02:00:00 -3,8 -4,6 4 2 - - SSE 0,0
09.04.2020 01:00:00 -2,8 -3,7 4 2 - - SSE 0,0
09.04.2020 00:00:00 -2,7 -3,8 4 2 - - SSE 0,0
08.04.2020 23:00:00 -1,8 -3,8 9 5 - - SE 0,0
08.04.2020 22:00:00 0,1 -1,8 11 6 - - E 0,0
08.04.2020 21:00:00 0,2 -2,8 4 2 - - S 0,0
08.04.2020 20:00:00 4,7 -1,4 13 7 - - N 0,0
08.04.2020 19:00:00 7,5 -0,8 15 8 - - NNW 0,0
08.04.2020 18:00:00 7,6 -0,5 18 10 - - NNW 0,0
08.04.2020 17:00:00 7,9 1,7 21 11 - - NNW 0,0
08.04.2020 16:00:00 7,7 2,2 16 9 - - NNW 0,0
08.04.2020 15:00:00 7,3 3,5 18 10 - - NNW 0,0
08.04.2020 14:00:00 7,7 5,2 18 10 - - NNW 0,0
08.04.2020 13:00:00 6,6 5,0 21 11 - - NNW 0,4
08.04.2020 12:00:00 5,8 4,9 18 10 - - N 0,0
08.04.2020 11:00:00 5,8 5,1 16 9 - - N 0,4
08.04.2020 10:00:00 5,6 5,0 16 9 - - N 0,6
08.04.2020 09:00:00 5,7 5,2 15 8 - - N 0,4
08.04.2020 08:00:00 5,5 4,7 15 8 - - NNE 1,0
08.04.2020 07:00:00 7,2 6,3 9 5 - - S 0,2
08.04.2020 06:00:00 7,0 5,6 5 3 - - E 0,0
08.04.2020 05:00:00 6,6 5,3 2 1 - - SW 0,0
08.04.2020 04:00:00 6,6 5,1 4 2 - - S 0,0
08.04.2020 03:00:00 7,7 4,1 4 2 - - SSE 0,0
08.04.2020 02:00:00 7,6 3,6 4 2 - - SE 0,0
08.04.2020 01:00:00 7,9 3,1 2 1 - - NW 0,0
08.04.2020 00:00:00 8,6 3,3 8 4 - - SW 0,0
07.04.2020 23:00:00 9,1 3,4 15 8 - - S 0,0
07.04.2020 22:00:00 9,1 1,8 13 7 - - S 0,0
07.04.2020 21:00:00 8,9 1,2 16 9 - - S 0,0
07.04.2020 20:00:00 9,5 0,4 21 11 - - S 0,0
07.04.2020 19:00:00 10,7 0,6 24 13 46 25 WSW 0,0
07.04.2020 18:00:00 13,0 0,7 24 13 - - SSW 0,0
07.04.2020 17:00:00 12,6 0,9 31 17 52 28 SSW 0,0
07.04.2020 16:00:00 12,7 2,6 31 17 52 28 SSW 0,0
07.04.2020 15:00:00 13,5 0,8 29 16 52 28 S 0,0
07.04.2020 14:00:00 12,8 2,4 28 15 - - S 0,0
07.04.2020 13:00:00 12,0 2,2 26 14 - - SSW 0,0
07.04.2020 12:00:00 10,7 2,3 22 12 - - SSW 0,0
07.04.2020 11:00:00 9,8 2,5 18 10 - - SSW 0,0
07.04.2020 10:00:00 8,1 2,9 15 8 - - S 0,0
07.04.2020 09:00:00 8,0 2,6 13 7 - - SE 0,0
07.04.2020 08:00:00 6,3 2,1 16 9 - - SSE 0,0
07.04.2020 07:00:00 6,1 1,9 15 8 - - ESE 0,0
07.04.2020 06:00:00 3,3 1,1 8 4 - - S 0,0
07.04.2020 05:00:00 2,5 1,2 9 5 - - S 0,0
07.04.2020 04:00:00 4,7 2,3 13 7 - - S 0,0
07.04.2020 03:00:00 3,9 1,8 13 7 - - E 0,0
07.04.2020 02:00:00 3,6 1,8 8 4 - - E 0,0
07.04.2020 01:00:00 2,0 0,4 5 3 - - ESE 0,0
07.04.2020 00:00:00 1,3 -0,1 11 6 - - E 0,0
06.04.2020 23:00:00 2,8 0,3 2 1 - - WNW 0,0
06.04.2020 22:00:00 4,2 0,9 11 6 52 28 SE 0,0
06.04.2020 21:00:00 5,0 1,9 9 5 - - SE 0,0
06.04.2020 20:00:00 5,5 2,1 5 3 - - WNW 0,2
06.04.2020 19:00:00 6,1 3,0 13 7 59 32 W 0,2
06.04.2020 18:00:00 7,8 3,2 28 15 52 28 WNW 0,0
06.04.2020 17:00:00 7,9 2,6 28 15 48 26 WSW 0,2
06.04.2020 16:00:00 9,9 3,3 31 17 61 33 W 0,0
06.04.2020 15:00:00 9,0 3,8 39 21 61 33 W 0,0
06.04.2020 14:00:00 11,7 2,1 37 20 52 28 W 0,0
06.04.2020 13:00:00 12,0 3,6 31 17 54 29 W 0,0
06.04.2020 12:00:00 11,6 3,5 31 17 59 32 SW 0,0
06.04.2020 11:00:00 11,3 1,8 31 17 50 27 SSW 0,0
06.04.2020 10:00:00 10,0 3,8 22 12 - - SSW 0,0
06.04.2020 09:00:00 9,4 4,6 21 11 - - SSW 0,0
06.04.2020 08:00:00 7,7 5,1 8 4 - - S 0,0
06.04.2020 07:00:00 8,3 4,7 16 9 - - S 0,0
06.04.2020 06:00:00 10,1 6,4 18 10 54 29 SSW 0,2
06.04.2020 05:00:00 12,3 8,2 29 16 50 27 S 0,0
06.04.2020 04:00:00 12,7 7,4 28 15 - - S 0,0
06.04.2020 03:00:00 11,7 6,3 35 19 59 32 SE 0,0
06.04.2020 02:00:00 13,1 6,7 41 22 68 37 S 0,0
06.04.2020 01:00:00 12,1 5,4 34 18 54 29 SE 0,0
06.04.2020 00:00:00 10,3 5,3 41 22 59 32 SE 0,0
05.04.2020 23:00:00 9,4 4,9 44 24 61 33 ESE 0,0
05.04.2020 22:00:00 9,9 4,8 46 25 65 35 SE 0,0
05.04.2020 21:00:00 9,5 4,7 42 23 59 32 SE 0,0
05.04.2020 20:00:00 9,8 4,6 42 23 61 33 SE 0,0
05.04.2020 19:00:00 11,0 5,0 46 25 61 33 SE 0,0
05.04.2020 18:00:00 11,3 4,6 39 21 57 31 SE 0,0
05.04.2020 17:00:00 13,1 4,7 39 21 55 30 SSE 0,0
05.04.2020 16:00:00 13,1 4,3 29 16 52 28 SSE 0,0
05.04.2020 15:00:00 12,7 5,1 31 17 52 28 SSE 0,0
05.04.2020 14:00:00 11,8 4,9 35 19 48 26 SE 0,0
05.04.2020 13:00:00 11,3 5,1 41 22 54 29 SE 0,0
05.04.2020 12:00:00 9,8 4,3 35 19 54 29 SE 0,0
05.04.2020 11:00:00 10,0 3,9 34 18 52 28 SE 0,0
05.04.2020 10:00:00 10,4 3,9 35 19 48 26 SSE 0,0
05.04.2020 09:00:00 9,9 3,9 37 20 54 29 SSE 0,0
05.04.2020 08:00:00 8,7 3,6 34 18 52 28 SSE 0,0
05.04.2020 07:00:00 8,6 3,8 29 16 - - SSE 0,0
05.04.2020 06:00:00 6,9 3,8 26 14 - - SE 0,0
05.04.2020 05:00:00 6,8 3,5 21 11 - - SE 0,0
05.04.2020 04:00:00 5,9 2,9 18 10 - - ESE 0,0
05.04.2020 03:00:00 6,2 2,5 18 10 - - ESE 0,0
05.04.2020 02:00:00 5,8 2,6 18 10 - - ESE 0,0
05.04.2020 01:00:00 6,1 2,8 18 10 - - SE 0,0
05.04.2020 00:00:00 6,4 3,1 24 13 - - SSE 0,0
04.04.2020 23:00:00 7,0 2,9 22 12 - - SSE 0,0
04.04.2020 22:00:00 6,6 2,7 21 11 - - SSE 0,0
04.04.2020 21:00:00 7,0 2,8 18 10 - - SSE 0,0
04.04.2020 20:00:00 7,7 3,1 21 11 - - SE 0,0
04.04.2020 19:00:00 8,2 3,3 21 11 - - SSE 0,0
04.04.2020 18:00:00 9,2 3,1 16 9 - - S 0,0
04.04.2020 17:00:00 9,3 3,7 15 8 - - S 0,0
04.04.2020 16:00:00 9,1 4,5 18 10 - - S 0,0
04.04.2020 15:00:00 9,0 5,2 21 11 - - SSE 0,0
04.04.2020 14:00:00 9,4 4,9 22 12 - - SSW 0,0
04.04.2020 13:00:00 8,6 4,9 18 10 - - S 0,0
04.04.2020 12:00:00 8,1 4,9 21 11 - - SSW 0,0
04.04.2020 11:00:00 8,1 5,0 15 8 - - S 0,0
04.04.2020 10:00:00 6,9 4,3 15 8 - - SSE 0,0
04.04.2020 09:00:00 6,1 4,0 11 6 - - SE 0,0
04.04.2020 08:00:00 5,0 2,6 8 4 - - SSE 0,0
04.04.2020 07:00:00 4,1 1,9 8 4 - - ESE 0,0
04.04.2020 06:00:00 4,6 1,8 18 10 - - SE 0,0
04.04.2020 05:00:00 3,7 1,4 15 8 - - ESE 0,0
04.04.2020 04:00:00 3,1 1,4 18 10 - - SSE 0,0
04.04.2020 03:00:00 2,0 1,4 4 2 - - E 0,0
04.04.2020 02:00:00 1,4 0,9 2 1 - - S 0,0
04.04.2020 01:00:00 1,1 0,5 2 1 - - SSW 0,0
04.04.2020 00:00:00 1,8 1,2 9 5 - - E 0,0
03.04.2020 23:00:00 2,2 1,4 4 2 - - SE 0,0
03.04.2020 22:00:00 1,9 1,2 5 3 - - E 0,0
03.04.2020 21:00:00 1,9 1,0 9 5 - - E 0,0
03.04.2020 20:00:00 2,3 1,1 5 3 - - E 0,6
03.04.2020 19:00:00 4,5 1,0 5 3 - - WSW 0,0
03.04.2020 18:00:00 5,6 0,6 13 7 - - WNW 0,0
03.04.2020 17:00:00 5,2 0,7 8 4 - - NNW 0,0
03.04.2020 16:00:00 3,6 2,0 13 7 - - NW 0,2
03.04.2020 15:00:00 4,1 0,7 24 13 - - WSW 0,0
03.04.2020 14:00:00 6,7 0,2 18 10 - - W 0,0
03.04.2020 13:00:00 4,8 -0,1 16 9 - - W 0,0
03.04.2020 12:00:00 4,2 -0,2 21 11 - - NW 0,0

tt = temperature
td = dewpoint
ff = wind speed
fx = gusts
dd = wind direction
rr = precipitation

Next stations